createdAt,value
2022-11-25T00:01:30.146Z,3.35
2022-11-25T00:03:58.759Z,1.60
2022-11-25T00:06:35.032Z,1.27
2022-11-25T00:09:11.822Z,1.98
2022-11-25T00:11:41.941Z,1.38
2022-11-25T00:14:14.688Z,2.22
2022-11-25T00:16:46.691Z,1.42
2022-11-25T00:19:14.779Z,2.22
2022-11-25T00:21:41.682Z,1.70
2022-11-25T00:24:08.720Z,2.72
2022-11-25T00:26:36.592Z,3.72
2022-11-25T00:29:07.472Z,1.77
2022-11-25T00:31:40.836Z,2.42
2022-11-25T00:34:12.920Z,1.98
2022-11-25T00:36:40.119Z,2.47
2022-11-25T00:39:13.578Z,1.85
2022-11-25T00:42:01.460Z,2.35
2022-11-25T00:44:41.074Z,2.33
2022-11-25T00:47:20.957Z,2.55
2022-11-25T00:49:54.723Z,3.72
2022-11-25T00:52:26.909Z,3.45
2022-11-25T00:54:54.593Z,2.65
2022-11-25T00:57:24.161Z,2.30
2022-11-25T00:59:51.388Z,2.95
2022-11-25T01:02:22.424Z,2.45
2022-11-25T01:04:49.479Z,3.05
2022-11-25T01:07:17.665Z,3.28
2022-11-25T01:09:45.000Z,2.50
2022-11-25T01:12:12.004Z,2.35
2022-11-25T01:14:39.432Z,1.85
2022-11-25T01:17:06.514Z,2.92
2022-11-25T01:19:33.835Z,2.88
2022-11-25T01:22:00.838Z,2.47
2022-11-25T01:24:27.898Z,2.28
2022-11-25T01:26:56.129Z,4.38
2022-11-25T01:29:23.312Z,2.45
2022-11-25T01:31:51.109Z,4.10
2022-11-25T01:34:24.003Z,1.92
2022-11-25T01:36:51.284Z,2.38
2022-11-25T01:39:27.100Z,2.00
2022-11-25T01:41:57.977Z,3.78
2022-11-25T01:44:29.347Z,1.77
2022-11-25T01:47:13.668Z,2.15
2022-11-25T01:50:00.388Z,2.63
2022-11-25T01:52:32.579Z,2.72
2022-11-25T01:55:08.064Z,3.25
2022-11-25T01:57:42.445Z,2.22
2022-11-25T02:00:10.447Z,3.28
2022-11-25T02:02:56.474Z,2.42
2022-11-25T02:05:35.853Z,3.03
2022-11-25T02:08:04.785Z,2.38
2022-11-25T02:10:33.803Z,2.00
2022-11-25T02:13:03.510Z,2.33
2022-11-25T02:15:33.695Z,2.58
2022-11-25T02:18:01.160Z,3.15
2022-11-25T02:20:28.656Z,2.67
2022-11-25T02:23:02.763Z,2.83
2022-11-25T02:25:36.074Z,2.30
2022-11-25T02:28:26.577Z,2.47
2022-11-25T02:30:54.463Z,3.10
2022-11-25T02:33:22.239Z,2.65
2022-11-25T02:36:00.664Z,2.50
2022-11-25T02:38:50.827Z,2.25
2022-11-25T02:41:35.524Z,2.80
2022-11-25T02:44:06.020Z,2.90
2022-11-25T02:46:33.780Z,3.72
2022-11-25T02:49:09.394Z,2.45
2022-11-25T02:51:40.517Z,2.83
2022-11-25T02:54:09.826Z,3.63
2022-11-25T02:56:38.238Z,2.67
2022-11-25T02:59:05.702Z,3.30
2022-11-25T03:01:32.896Z,1.95
2022-11-25T03:04:00.925Z,2.53
2022-11-25T03:06:29.239Z,3.33
2022-11-25T03:08:57.285Z,2.40
2022-11-25T03:11:44.062Z,2.75
2022-11-25T03:14:11.200Z,3.55
2022-11-25T03:16:38.433Z,3.22
2022-11-25T03:19:05.538Z,3.97
2022-11-25T03:21:32.482Z,3.35
2022-11-25T03:23:59.424Z,2.45
2022-11-25T03:26:26.687Z,3.05
2022-11-25T03:28:53.648Z,3.63
2022-11-25T03:31:20.965Z,3.08
2022-11-25T03:33:48.516Z,4.30
2022-11-25T03:36:15.863Z,2.83
2022-11-25T03:38:42.864Z,2.45
2022-11-25T03:41:10.027Z,2.10
2022-11-25T03:43:38.066Z,4.60
2022-11-25T03:46:05.156Z,2.75
2022-11-25T03:48:32.548Z,3.00
2022-11-25T03:50:59.664Z,1.90
2022-11-25T03:53:28.068Z,2.88
2022-11-25T03:55:55.032Z,3.45
2022-11-25T03:58:25.188Z,2.45
2022-11-25T04:00:52.751Z,3.80
2022-11-25T04:03:20.032Z,2.72
2022-11-25T04:05:47.148Z,3.47
2022-11-25T04:08:14.146Z,2.92
2022-11-25T04:10:42.150Z,3.55
2022-11-25T04:13:11.366Z,3.53
2022-11-25T04:15:47.568Z,2.95
2022-11-25T04:18:17.819Z,3.03
2022-11-25T04:20:45.267Z,2.33
2022-11-25T04:23:14.088Z,3.08
2022-11-25T04:25:52.150Z,2.85
2022-11-25T04:28:27.349Z,3.28
2022-11-25T04:30:55.471Z,3.50
2022-11-25T04:33:22.534Z,2.83
2022-11-25T04:35:49.494Z,2.53
2022-11-25T04:38:17.035Z,3.08
2022-11-25T04:40:44.318Z,4.50
2022-11-25T04:43:14.509Z,3.08
2022-11-25T04:46:13.107Z,4.80
2022-11-25T04:48:38.927Z,3.17
2022-11-25T04:51:06.000Z,4.15
2022-11-25T04:53:33.575Z,3.25
2022-11-25T04:56:00.479Z,2.97
2022-11-25T04:58:48.579Z,2.42
2022-11-25T05:01:16.217Z,3.13
2022-11-25T05:03:56.043Z,2.55
2022-11-25T05:06:25.376Z,3.50
2022-11-25T05:08:53.727Z,2.60
2022-11-25T05:11:23.208Z,4.97
2022-11-25T05:13:51.358Z,3.13
2022-11-25T05:16:18.467Z,3.45
2022-11-25T05:18:46.397Z,3.10
2022-11-25T05:21:13.628Z,2.72
2022-11-25T05:23:42.537Z,3.15
2022-11-25T05:26:10.063Z,2.28
2022-11-25T05:28:41.407Z,1.80
2022-11-25T05:31:09.604Z,2.78
2022-11-25T05:33:37.756Z,2.20
2022-11-25T05:36:06.416Z,2.03
2022-11-25T05:38:51.212Z,2.60
2022-11-25T05:41:29.885Z,2.53
2022-11-25T05:43:57.177Z,3.47
2022-11-25T05:46:24.494Z,2.80
2022-11-25T05:48:56.043Z,2.78
2022-11-25T05:51:25.180Z,2.42
2022-11-25T05:53:54.216Z,3.80
2022-11-25T05:56:24.409Z,2.30
2022-11-25T05:59:08.652Z,2.60
2022-11-25T06:01:58.717Z,2.20
2022-11-25T06:04:27.191Z,2.20
2022-11-25T06:06:54.355Z,2.17
2022-11-25T06:09:22.465Z,2.95
2022-11-25T06:11:50.583Z,2.10
2022-11-25T06:14:18.740Z,2.03
2022-11-25T06:16:47.292Z,2.25
2022-11-25T06:19:23.917Z,2.15
2022-11-25T06:21:51.286Z,1.90
2022-11-25T06:24:18.606Z,2.00
2022-11-25T06:26:46.961Z,2.50
2022-11-25T06:29:13.933Z,3.05
2022-11-25T06:31:45.781Z,1.60
2022-11-25T06:34:31.329Z,2.17
2022-11-25T06:37:00.710Z,2.17
2022-11-25T06:39:27.578Z,2.00
2022-11-25T06:41:54.511Z,2.30
2022-11-25T06:44:21.353Z,3.90
2022-11-25T06:46:48.316Z,1.85
2022-11-25T06:49:15.604Z,2.58
2022-11-25T06:51:42.564Z,2.80
2022-11-25T06:54:10.385Z,2.30
2022-11-25T06:56:39.340Z,2.45
2022-11-25T06:59:07.164Z,3.45
2022-11-25T07:01:34.456Z,2.22
2022-11-25T07:04:04.922Z,2.88
2022-11-25T07:06:33.511Z,2.67
2022-11-25T07:09:01.022Z,2.53
2022-11-25T07:11:38.311Z,2.92
2022-11-25T07:14:10.387Z,2.42
2022-11-25T07:16:41.818Z,2.55
2022-11-25T07:19:13.705Z,2.58
2022-11-25T07:21:41.320Z,2.85
2022-11-25T07:24:10.220Z,4.05
2022-11-25T07:26:39.593Z,2.45
2022-11-25T07:32:09.955Z,3.78
2022-11-25T07:34:37.661Z,2.83
2022-11-25T07:37:04.677Z,3.50
2022-11-25T07:39:31.790Z,2.53
2022-11-25T07:41:58.762Z,2.78
2022-11-25T07:44:25.717Z,2.80
2022-11-25T07:47:00.970Z,2.35
2022-11-25T07:49:28.355Z,2.33
2022-11-25T07:51:59.717Z,2.60
2022-11-25T07:54:26.861Z,2.65
2022-11-25T07:56:54.042Z,2.38
2022-11-25T07:59:23.199Z,3.15
2022-11-25T08:01:55.126Z,2.40
2022-11-25T08:04:23.145Z,3.10
2022-11-25T08:06:52.554Z,2.70
2022-11-25T08:09:22.899Z,2.67
2022-11-25T08:11:51.039Z,2.30
2022-11-25T08:14:18.611Z,2.85
2022-11-25T08:16:45.938Z,1.80
2022-11-25T08:19:16.373Z,1.75
2022-11-25T08:21:43.747Z,1.70
2022-11-25T08:24:18.121Z,3.30
2022-11-25T08:26:45.813Z,2.33
2022-11-25T08:29:15.706Z,1.88
2022-11-25T08:31:43.422Z,3.53
2022-11-25T08:34:20.013Z,1.65
2022-11-25T08:36:49.198Z,2.35
2022-11-25T08:42:07.027Z,1.70
2022-11-25T08:44:35.274Z,1.38
2022-11-25T08:47:02.282Z,1.30
2022-11-25T08:49:32.773Z,1.90
2022-11-25T08:52:05.179Z,1.70
2022-11-25T08:54:32.074Z,1.60
2022-11-25T08:57:00.694Z,1.55
2022-11-25T08:59:27.743Z,1.75
2022-11-25T09:01:56.191Z,1.60
2022-11-25T09:04:23.770Z,1.40
2022-11-25T09:06:51.129Z,1.77
2022-11-25T09:09:20.208Z,1.60
2022-11-25T09:11:49.083Z,1.15
2022-11-25T09:14:18.084Z,1.70
2022-11-25T09:16:46.249Z,1.38
2022-11-25T09:19:13.183Z,1.67
2022-11-25T09:21:40.262Z,1.02
2022-11-25T09:24:07.403Z,1.58
2022-11-25T09:26:35.917Z,1.85
2022-11-25T09:29:03.670Z,1.48
2022-11-25T09:31:30.824Z,1.30
2022-11-25T09:33:58.057Z,1.58
2022-11-25T09:36:25.271Z,2.35
2022-11-25T09:38:53.008Z,1.65
2022-11-25T09:42:13.364Z,1.85
2022-11-25T09:45:30.933Z,2.05
2022-11-25T09:51:05.457Z,1.45
2022-11-25T09:53:45.414Z,1.77
2022-11-25T09:56:29.110Z,1.58
2022-11-25T09:59:06.435Z,1.40
2022-11-25T10:01:47.839Z,1.75
2022-11-25T10:04:32.881Z,1.73
2022-11-25T10:07:03.296Z,1.30
2022-11-25T10:09:36.001Z,1.70
2022-11-25T10:12:26.030Z,1.50
2022-11-25T10:15:01.916Z,1.60
2022-11-25T10:17:49.973Z,1.70
2022-11-25T10:20:29.839Z,2.40
2022-11-25T10:23:02.551Z,1.48
2022-11-25T10:25:45.827Z,2.05
2022-11-25T10:28:23.719Z,1.88
2022-11-25T10:31:04.662Z,1.92
2022-11-25T10:33:54.522Z,1.67
2022-11-25T10:36:33.167Z,1.90
2022-11-25T10:39:15.046Z,2.00
2022-11-25T10:41:55.169Z,1.77
2022-11-25T10:44:32.183Z,2.20
2022-11-25T10:47:20.564Z,2.42
2022-11-25T10:50:28.334Z,2.03
2022-11-25T10:53:13.700Z,2.10
2022-11-25T10:56:04.882Z,2.65
2022-11-25T10:58:37.815Z,2.90
2022-11-25T11:01:25.278Z,3.10
2022-11-25T11:04:19.084Z,2.47
2022-11-25T11:06:49.625Z,1.65
2022-11-25T11:09:40.805Z,1.80
2022-11-25T11:12:29.540Z,2.42
2022-11-25T11:15:40.859Z,3.47
2022-11-25T11:18:31.080Z,1.90
2022-11-25T11:21:00.234Z,1.90
2022-11-25T11:23:29.085Z,2.05
2022-11-25T11:26:02.123Z,1.77
2022-11-25T11:28:36.112Z,2.33
2022-11-25T11:31:25.836Z,2.38
2022-11-25T11:34:20.516Z,2.20
2022-11-25T11:37:34.007Z,1.75
2022-11-25T11:40:34.528Z,3.63
2022-11-25T11:43:47.113Z,2.17
2022-11-25T11:46:30.872Z,3.15
2022-11-25T11:49:30.257Z,2.30
2022-11-25T11:52:31.905Z,3.50
2022-11-25T11:55:26.736Z,2.05
2022-11-25T11:58:27.876Z,2.55
2022-11-25T12:01:11.520Z,2.35
2022-11-25T12:04:01.613Z,2.25
2022-11-25T12:06:34.483Z,2.80
2022-11-25T12:09:20.954Z,2.33
2022-11-25T12:11:56.313Z,2.50
2022-11-25T12:14:43.896Z,2.00
2022-11-25T12:17:21.101Z,2.28
2022-11-25T12:20:26.586Z,2.38
2022-11-25T12:23:15.291Z,3.95
2022-11-25T12:25:43.228Z,2.92
2022-11-25T12:28:22.985Z,2.30
2022-11-25T12:31:23.866Z,2.10
2022-11-25T12:34:21.588Z,2.25
2022-11-25T12:36:49.155Z,3.58
2022-11-25T12:40:15.492Z,2.65
2022-11-25T12:42:44.229Z,2.13
2022-11-25T12:45:26.980Z,4.28
2022-11-25T12:47:54.200Z,2.83
2022-11-25T12:51:40.631Z,2.20
2022-11-25T12:54:45.824Z,1.98
2022-11-25T12:57:48.630Z,2.22
2022-11-25T13:00:45.077Z,2.58
2022-11-25T13:03:39.241Z,2.70
2022-11-25T13:06:38.705Z,2.50
2022-11-25T13:10:01.081Z,3.25
2022-11-25T13:12:55.715Z,1.80
2022-11-25T13:15:38.027Z,2.60
2022-11-25T13:18:16.335Z,3.58
2022-11-25T13:20:46.703Z,1.88
2022-11-25T13:23:25.052Z,2.38
2022-11-25T13:25:54.093Z,2.15
2022-11-25T13:28:38.266Z,2.63
2022-11-25T13:31:14.217Z,2.28
2022-11-25T13:33:44.279Z,2.25
2022-11-25T13:36:23.801Z,2.72
2022-11-25T13:38:50.611Z,3.08
2022-11-25T13:41:22.172Z,2.30
2022-11-25T13:44:05.769Z,2.20
2022-11-25T13:46:47.264Z,2.25
2022-11-25T13:49:49.298Z,2.40
2022-11-25T13:52:16.097Z,1.85
2022-11-25T13:54:56.051Z,1.67
2022-11-25T13:57:32.733Z,1.92
2022-11-25T14:00:10.245Z,2.15
2022-11-25T14:02:45.661Z,2.72
2022-11-25T14:06:03.308Z,2.67
2022-11-25T14:08:56.469Z,2.67
2022-11-25T14:11:40.873Z,2.65
2022-11-25T14:14:38.460Z,1.77
2022-11-25T14:17:52.709Z,2.33
2022-11-25T14:20:56.120Z,2.97
2022-11-25T14:23:58.135Z,1.95
2022-11-25T14:26:49.392Z,2.40
2022-11-25T14:29:49.233Z,2.20
2022-11-25T14:32:48.691Z,2.92
2022-11-25T14:35:19.634Z,2.10
2022-11-25T14:37:56.866Z,1.95
2022-11-25T14:40:40.817Z,2.63
2022-11-25T14:43:42.317Z,1.65
2022-11-25T14:46:22.300Z,1.92
2022-11-25T14:49:03.357Z,3.28
2022-11-25T14:51:38.147Z,1.98
2022-11-25T14:54:09.206Z,2.35
2022-11-25T14:56:37.689Z,2.25
2022-11-25T14:59:08.136Z,1.92
2022-11-25T15:01:38.135Z,2.28
2022-11-25T15:04:12.714Z,2.10
2022-11-25T15:06:43.097Z,2.92
2022-11-25T15:09:32.200Z,2.13
2022-11-25T15:12:11.817Z,3.03
2022-11-25T15:14:43.016Z,2.60
2022-11-25T15:17:32.056Z,3.08
2022-11-25T15:20:12.836Z,1.88
2022-11-25T15:22:39.823Z,2.42
2022-11-25T15:25:12.753Z,2.10
2022-11-25T15:27:49.917Z,3.28
2022-11-25T15:30:25.639Z,2.33
2022-11-25T15:35:26.636Z,2.35
2022-11-25T15:37:56.554Z,3.10
2022-11-25T15:40:42.020Z,2.10
2022-11-25T15:43:27.405Z,3.78
2022-11-25T15:46:03.912Z,2.53
2022-11-25T15:48:39.897Z,2.05
2022-11-25T15:51:25.668Z,3.15
2022-11-25T15:54:03.605Z,2.47
2022-11-25T15:56:34.604Z,2.58
2022-11-25T15:59:02.221Z,1.80
2022-11-25T16:01:30.393Z,2.28
2022-11-25T16:04:20.029Z,5.85
2022-11-25T16:06:59.508Z,2.55
2022-11-25T16:09:28.826Z,3.00
2022-11-25T16:12:06.639Z,3.00
2022-11-25T16:14:36.929Z,3.90
2022-11-25T16:17:11.384Z,3.30
2022-11-25T16:19:44.909Z,3.08
2022-11-25T16:22:18.922Z,2.58
2022-11-25T16:25:01.799Z,3.50
2022-11-25T16:27:30.022Z,3.13
2022-11-25T16:30:18.716Z,2.95
2022-11-25T16:32:45.659Z,3.65
2022-11-25T16:35:16.485Z,2.50
2022-11-25T16:37:48.593Z,4.05
2022-11-25T16:40:18.001Z,3.25
2022-11-25T16:42:49.871Z,4.13
2022-11-25T16:45:26.451Z,2.88
2022-11-25T16:47:53.665Z,2.53
2022-11-25T16:50:22.112Z,2.55
2022-11-25T16:52:49.821Z,2.67
2022-11-25T16:55:18.560Z,2.67
2022-11-25T16:57:45.893Z,2.67
2022-11-25T17:00:17.003Z,2.90
2022-11-25T17:02:44.840Z,3.13
2022-11-25T17:05:30.824Z,3.60
2022-11-25T17:07:57.737Z,2.42
2022-11-25T17:10:26.584Z,3.17
2022-11-25T17:12:53.575Z,2.72
2022-11-25T17:15:32.756Z,2.83
2022-11-25T17:18:02.604Z,4.22
2022-11-25T17:20:29.523Z,3.22
2022-11-25T17:22:56.504Z,4.05
2022-11-25T17:25:31.025Z,4.10
2022-11-25T17:28:00.764Z,3.63
2022-11-25T17:30:28.620Z,2.97
2022-11-25T17:33:07.234Z,2.70
2022-11-25T17:35:34.174Z,2.58
2022-11-25T17:38:01.732Z,2.97
2022-11-25T17:40:28.661Z,2.58
2022-11-25T17:42:55.667Z,3.30
2022-11-25T17:45:22.768Z,2.22
2022-11-25T17:47:49.808Z,3.78
2022-11-25T17:50:22.132Z,4.05
2022-11-25T17:52:50.089Z,3.75
2022-11-25T17:55:19.973Z,3.95
2022-11-25T17:57:48.809Z,5.35
2022-11-25T18:00:20.745Z,4.55
2022-11-25T18:02:48.448Z,3.70
2022-11-25T18:05:25.305Z,6.07
2022-11-25T18:07:52.500Z,3.78
2022-11-25T18:10:24.097Z,4.75
2022-11-25T18:12:53.900Z,4.18
2022-11-25T18:15:25.137Z,4.38
2022-11-25T18:18:06.412Z,4.20
2022-11-25T18:20:34.281Z,4.97
2022-11-25T18:23:01.839Z,5.20
2022-11-25T18:25:32.562Z,4.72
2022-11-25T18:28:00.760Z,3.85
2022-11-25T18:30:31.178Z,4.70
2022-11-25T18:32:58.291Z,4.82
2022-11-25T18:35:34.159Z,5.25
2022-11-25T18:38:02.887Z,3.20
2022-11-25T18:40:30.352Z,4.57
2022-11-25T18:43:00.442Z,3.65
2022-11-25T18:45:38.517Z,4.10
2022-11-25T18:48:25.211Z,3.58
2022-11-25T18:50:54.998Z,5.15
2022-11-25T18:53:22.043Z,6.78
2022-11-25T18:55:49.206Z,5.50
2022-11-25T18:58:24.533Z,4.53
2022-11-25T19:00:52.847Z,5.95
2022-11-25T19:03:23.161Z,6.72
2022-11-25T19:05:51.438Z,6.00
2022-11-25T19:08:20.420Z,6.97
2022-11-25T19:10:48.638Z,4.60
2022-11-25T19:13:21.567Z,5.65
2022-11-25T19:15:48.796Z,4.20
2022-11-25T19:18:24.152Z,4.45
2022-11-25T19:20:51.430Z,5.32
2022-11-25T19:23:25.333Z,5.30
2022-11-25T19:25:55.104Z,4.60
2022-11-25T19:28:22.529Z,7.65
2022-11-25T19:30:52.801Z,5.13
2022-11-25T19:33:31.701Z,5.05
2022-11-25T19:35:58.967Z,5.00
2022-11-25T19:38:26.315Z,5.80
2022-11-25T19:40:55.401Z,4.07
2022-11-25T19:43:26.996Z,8.32
2022-11-25T19:45:56.006Z,21.00
2022-11-25T19:48:26.984Z,3.40
2022-11-25T19:51:02.488Z,4.65
2022-11-25T19:53:33.887Z,5.22
2022-11-25T19:56:04.424Z,9.27
2022-11-25T19:58:32.303Z,4.53
2022-11-25T20:01:05.843Z,5.88
2022-11-25T20:03:33.210Z,5.38
2022-11-25T20:06:00.262Z,4.70
2022-11-25T20:08:28.937Z,5.30
2022-11-25T20:10:56.892Z,7.53
2022-11-25T20:13:26.146Z,4.85
2022-11-25T20:15:55.223Z,5.60
2022-11-25T20:18:25.233Z,4.65
2022-11-25T20:21:04.145Z,6.97
2022-11-25T20:23:43.375Z,5.60
2022-11-25T20:26:37.780Z,6.20
2022-11-25T20:29:19.018Z,6.53
2022-11-25T20:31:46.783Z,5.72
2022-11-25T20:34:13.994Z,6.88
2022-11-25T20:36:43.208Z,6.88
2022-11-25T20:39:18.774Z,6.90
2022-11-25T20:41:52.879Z,5.68
2022-11-25T20:44:20.834Z,7.20
2022-11-25T20:46:48.357Z,5.15
2022-11-25T20:49:29.069Z,6.78
2022-11-25T20:51:56.938Z,6.35
2022-11-25T20:54:26.870Z,7.22
2022-11-25T20:56:57.168Z,7.05
2022-11-25T20:59:25.955Z,6.65
2022-11-25T21:01:54.534Z,5.65
2022-11-25T21:04:21.844Z,5.70
2022-11-25T21:06:48.795Z,5.68
2022-11-25T21:09:21.695Z,6.80
2022-11-25T21:11:49.156Z,5.78
2022-11-25T21:14:18.982Z,6.22
2022-11-25T21:16:46.785Z,5.32
2022-11-25T21:19:13.848Z,6.38
2022-11-25T21:21:45.287Z,4.70
2022-11-25T21:24:47.361Z,4.90
2022-11-25T21:27:16.505Z,6.60
2022-11-25T21:29:45.348Z,5.55
2022-11-25T21:32:24.508Z,5.78
2022-11-25T21:34:51.586Z,5.13
2022-11-25T21:37:28.717Z,5.95
2022-11-25T21:39:58.227Z,5.60
2022-11-25T21:42:26.338Z,7.20
2022-11-25T21:44:53.769Z,5.63
2022-11-25T21:47:24.593Z,6.65
2022-11-25T21:49:52.106Z,4.90
2022-11-25T21:52:19.448Z,7.53
2022-11-25T21:54:46.854Z,5.53
2022-11-25T21:57:20.183Z,7.20
2022-11-25T21:59:47.632Z,5.70
2022-11-25T22:02:19.048Z,6.13
2022-11-25T22:04:46.288Z,6.15
2022-11-25T22:07:13.927Z,7.53
2022-11-25T22:09:41.408Z,7.72
2022-11-25T22:12:27.941Z,6.35
2022-11-25T22:14:55.232Z,6.80
2022-11-25T22:17:22.850Z,6.13
2022-11-25T22:19:50.168Z,5.97
2022-11-25T22:22:17.805Z,7.78
2022-11-25T22:24:45.563Z,5.97
2022-11-25T22:27:22.320Z,5.40
2022-11-25T22:29:49.929Z,5.90
2022-11-25T22:32:17.746Z,6.28
2022-11-25T22:34:44.866Z,6.50
2022-11-25T22:37:23.742Z,6.53
2022-11-25T22:39:50.954Z,5.93
2022-11-25T22:42:30.031Z,7.43
2022-11-25T22:44:59.065Z,5.95
2022-11-25T22:47:34.018Z,7.43
2022-11-25T22:50:05.267Z,6.35
2022-11-25T22:52:36.230Z,7.25
2022-11-25T22:55:32.375Z,7.20
2022-11-25T22:58:01.648Z,7.45
2022-11-25T23:00:33.547Z,6.82
2022-11-25T23:03:03.092Z,6.68
2022-11-25T23:05:37.066Z,5.75
2022-11-25T23:08:26.340Z,7.80
2022-11-25T23:10:54.332Z,7.30
2022-11-25T23:13:21.763Z,6.43
2022-11-25T23:15:55.915Z,6.70
2022-11-25T23:18:38.386Z,6.55
2022-11-25T23:21:18.884Z,7.07
2022-11-25T23:23:45.996Z,6.90
2022-11-25T23:26:14.047Z,6.85
2022-11-25T23:28:41.110Z,6.28
2022-11-25T23:31:15.505Z,8.23
2022-11-25T23:33:52.184Z,7.80
2022-11-25T23:36:33.840Z,7.82
2022-11-25T23:39:03.752Z,8.43
2022-11-25T23:41:34.328Z,6.82
2022-11-25T23:44:31.982Z,7.70
2022-11-25T23:47:03.283Z,8.13
2022-11-25T23:49:44.500Z,6.63
2022-11-25T23:52:27.430Z,7.28
2022-11-25T23:54:55.198Z,7.95
2022-11-25T23:57:26.809Z,7.13
2022-11-25T23:59:54.105Z,5.90
